Time,TemperatureF,DewpointF,PressureIn,WindDirection,WindDirectionDegrees,WindSpeedMPH,WindSpeedGustMPH,Humidity,HourlyPrecipIn,Conditions,Clouds,dailyrainin,SoftwareType,DateUTC
2013-04-06 00:14:00,27.4,22.0,30.18,NNW,338,5.0,7.0,80,0.00,,,0.00,weatherlink.com 1.10,2013-04-06 04:14:00,
2013-04-06 00:29:00,27.3,22.0,30.18,North,360,5.0,8.0,81,0.00,,,0.00,weatherlink.com 1.10,2013-04-06 04:29:00,
2013-04-06 00:44:00,27.0,22.0,30.19,North,350,3.0,7.0,81,0.00,,,0.00,weatherlink.com 1.10,2013-04-06 04:44:00,
2013-04-06 00:59:00,26.6,22.0,30.19,NNW,345,3.0,5.0,81,0.00,,,0.00,weatherlink.com 1.10,2013-04-06 04:59:00,
2013-04-06 01:14:00,26.4,21.0,30.19,North,355,2.0,4.0,81,0.00,,,0.00,weatherlink.com 1.10,2013-04-06 05:14:00,
2013-04-06 01:29:00,26.3,22.0,30.20,NNW,343,2.0,3.0,82,0.00,,,0.00,weatherlink.com 1.10,2013-04-06 05:29:00,
2013-04-06 01:44:00,26.1,21.0,30.20,North,350,2.0,4.0,82,0.00,,,0.00,weatherlink.com 1.10,2013-04-06 05:44:00,
2013-04-06 02:14:00,25.7,21.0,30.20,North,360,3.0,6.0,83,0.00,,,0.00,weatherlink.com 1.10,2013-04-06 06:14:00,
2013-04-06 02:29:00,25.4,21.0,30.20,North,355,2.0,4.0,84,0.00,,,0.00,weatherlink.com 1.10,2013-04-06 06:29:00,
2013-04-06 02:44:00,25.2,21.0,30.20,North,360,2.0,4.0,84,0.00,,,0.00,weatherlink.com 1.10,2013-04-06 06:44:00,
2013-04-06 02:59:00,25.1,21.0,30.21,North,355,0.0,1.0,84,0.00,,,0.00,weatherlink.com 1.10,2013-04-06 06:59:00,
2013-04-06 03:14:00,24.8,21.0,30.20,North,355,0.0,1.0,85,0.00,,,0.00,weatherlink.com 1.10,2013-04-06 07:14:00,
2013-04-06 03:29:00,24.5,21.0,30.20,North,355,0.0,0.0,86,0.00,,,0.00,weatherlink.com 1.10,2013-04-06 07:29:00,
2013-04-06 03:44:00,24.4,21.0,30.20,North,355,0.0,0.0,86,0.00,,,0.00,weatherlink.com 1.10,2013-04-06 07:44:00,
2013-04-06 03:59:00,24.6,21.0,30.20,North,355,2.0,3.0,86,0.00,,,0.00,weatherlink.com 1.10,2013-04-06 07:59:00,
2013-04-06 04:29:00,23.9,21.0,30.21,NNE,13,3.0,5.0,87,0.00,,,0.00,weatherlink.com 1.10,2013-04-06 08:29:00,
2013-04-06 04:44:00,24.1,21.0,30.22,NNE,18,2.0,4.0,87,0.00,,,0.00,weatherlink.com 1.10,2013-04-06 08:44:00,
2013-04-06 04:59:00,23.5,20.0,30.22,NNE,30,4.0,6.0,86,0.00,,,0.00,weatherlink.com 1.10,2013-04-06 08:59:00,
2013-04-06 05:14:00,23.7,20.0,30.23,NNE,30,3.0,7.0,86,0.00,,,0.00,weatherlink.com 1.10,2013-04-06 09:14:00,
2013-04-06 05:29:00,23.7,20.0,30.23,NNE,30,4.0,4.0,87,0.00,,,0.00,weatherlink.com 1.10,2013-04-06 09:29:00,
2013-04-06 05:44:00,23.5,20.0,30.24,NNE,28,1.0,4.0,87,0.00,,,0.00,weatherlink.com 1.10,2013-04-06 09:44:00,
2013-04-06 06:29:00,22.4,19.0,30.25,NE,49,2.0,4.0,88,0.00,,,0.00,weatherlink.com 1.10,2013-04-06 10:29:00,
2013-04-06 06:44:00,22.6,20.0,30.25,ENE,62,1.0,3.0,89,0.00,,,0.00,weatherlink.com 1.10,2013-04-06 10:44:00,
2013-04-06 06:59:00,22.6,20.0,30.26,East,84,1.0,5.0,88,0.00,,,0.00,weatherlink.com 1.10,2013-04-06 10:59:00,
2013-04-06 07:14:00,23.1,20.0,30.26,East,82,0.0,2.0,88,0.00,,,0.00,weatherlink.com 1.10,2013-04-06 11:14:00,
2013-04-06 07:29:00,23.8,21.0,30.27,ESE,111,0.0,3.0,87,0.00,,,0.00,weatherlink.com 1.10,2013-04-06 11:29:00,
2013-04-06 07:44:00,25.2,21.0,30.27,SE,126,3.0,4.0,85,0.00,,,0.00,weatherlink.com 1.10,2013-04-06 11:44:00,
2013-04-06 07:59:00,26.2,22.0,30.28,SE,136,0.0,3.0,83,0.00,,,0.00,weatherlink.com 1.10,2013-04-06 11:59:00,
2013-04-06 08:14:00,26.5,22.0,30.29,SE,145,4.0,7.0,83,0.00,,,0.00,weatherlink.com 1.10,2013-04-06 12:14:00,
2013-04-06 08:29:00,27.7,23.0,30.28,ESE,104,2.0,7.0,81,0.00,,,0.00,weatherlink.com 1.10,2013-04-06 12:29:00,
2013-04-06 08:45:00,28.7,23.0,30.29,ESE,121,3.0,9.0,78,0.00,,,0.00,weatherlink.com 1.10,2013-04-06 12:45:00,
2013-04-06 09:17:00,29.8,23.0,30.28,SE,127,4.0,11.0,75,0.00,,,0.00,weatherlink.com 1.10,2013-04-06 13:17:00,
2013-04-06 09:32:00,31.5,22.0,30.29,SE,131,5.0,12.0,69,0.00,,,0.00,weatherlink.com 1.10,2013-04-06 13:32:00,
2013-04-06 09:45:00,32.3,23.0,30.29,ESE,103,2.0,9.0,68,0.00,,,0.00,weatherlink.com 1.10,2013-04-06 13:45:00,
2013-04-06 10:15:00,33.8,22.0,30.30,SSE,157,4.0,10.0,62,0.00,,,0.00,weatherlink.com 1.10,2013-04-06 14:15:00,
2013-04-06 10:30:00,34.8,22.0,30.29,SE,134,4.0,14.0,61,0.00,,,0.00,weatherlink.com 1.10,2013-04-06 14:30:00,
2013-04-06 10:45:00,34.6,22.0,30.29,South,169,4.0,13.0,61,0.00,,,0.00,weatherlink.com 1.10,2013-04-06 14:45:00,
2013-04-06 11:00:00,37.0,21.0,30.29,SE,132,3.0,10.0,52,0.00,,,0.00,weatherlink.com 1.10,2013-04-06 15:00:00,
2013-04-06 11:15:00,38.2,22.0,30.29,SSE,150,1.0,9.0,52,0.00,,,0.00,weatherlink.com 1.10,2013-04-06 15:15:00,
2013-04-06 11:30:00,38.8,21.0,30.28,SSE,159,9.0,12.0,50,0.00,,,0.00,weatherlink.com 1.10,2013-04-06 15:30:00,
2013-04-06 11:45:00,39.1,20.0,30.28,South,180,3.0,12.0,47,0.00,,,0.00,weatherlink.com 1.10,2013-04-06 15:45:00,
2013-04-06 12:00:00,41.6,19.0,30.27,SSW,193,2.0,12.0,40,0.00,,,0.00,weatherlink.com 1.10,2013-04-06 16:00:00,
2013-04-06 12:15:00,42.5,20.0,30.27,SE,139,4.0,9.0,41,0.00,,,0.00,weatherlink.com 1.10,2013-04-06 16:15:00,
2013-04-06 12:30:00,42.0,18.0,30.26,South,184,6.0,13.0,38,0.00,,,0.00,weatherlink.com 1.10,2013-04-06 16:30:00,
2013-04-06 12:45:00,43.3,17.0,30.25,SE,143,8.0,13.0,34,0.00,,,0.00,weatherlink.com 1.10,2013-04-06 16:45:00,
2013-04-06 13:00:00,43.1,13.0,30.25,South,177,11.0,18.0,30,0.00,,,0.00,weatherlink.com 1.10,2013-04-06 17:00:00,
2013-04-06 13:16:00,43.7,19.0,30.25,SE,142,0.0,13.0,37,0.00,,,0.00,weatherlink.com 1.10,2013-04-06 17:16:00,
2013-04-06 13:30:00,44.6,17.0,30.24,South,170,7.0,12.0,33,0.00,,,0.00,weatherlink.com 1.10,2013-04-06 17:30:00,
2013-04-06 13:46:00,44.6,18.0,30.22,South,180,6.0,16.0,35,0.00,,,0.00,weatherlink.com 1.10,2013-04-06 17:46:00,
2013-04-06 14:00:00,45.3,17.0,30.22,SE,132,0.0,15.0,32,0.00,,,0.00,weatherlink.com 1.10,2013-04-06 18:00:00,
2013-04-06 14:15:00,46.3,15.0,30.21,South,188,10.0,11.0,29,0.00,,,0.00,weatherlink.com 1.10,2013-04-06 18:15:00,
2013-04-06 14:45:00,46.9,18.0,30.20,SE,128,5.0,18.0,31,0.00,,,0.00,weatherlink.com 1.10,2013-04-06 18:45:00,
2013-04-06 15:00:00,47.9,16.0,30.19,SSE,152,10.0,15.0,28,0.00,,,0.00,weatherlink.com 1.10,2013-04-06 19:00:00,
2013-04-06 15:16:00,47.7,17.0,30.18,SE,138,7.0,17.0,29,0.00,,,0.00,weatherlink.com 1.10,2013-04-06 19:16:00,
2013-04-06 15:30:00,48.4,16.0,30.17,South,175,6.0,13.0,27,0.00,,,0.00,weatherlink.com 1.10,2013-04-06 19:30:00,
2013-04-06 15:46:00,48.3,17.0,30.16,SE,136,2.0,15.0,29,0.00,,,0.00,weatherlink.com 1.10,2013-04-06 19:46:00,
2013-04-06 16:01:00,48.9,14.0,30.16,SSW,205,12.0,17.0,25,0.00,,,0.00,weatherlink.com 1.10,2013-04-06 20:01:00,
2013-04-06 16:16:00,49.9,16.0,30.15,SSW,200,9.0,16.0,26,0.00,,,0.00,weatherlink.com 1.10,2013-04-06 20:16:00,
2013-04-06 16:31:00,50.0,14.0,30.15,SSW,207,17.0,19.0,24,0.00,,,0.00,weatherlink.com 1.10,2013-04-06 20:31:00,
2013-04-06 17:16:00,50.9,16.0,30.13,SSE,163,12.0,17.0,25,0.00,,,0.00,weatherlink.com 1.10,2013-04-06 21:16:00,
2013-04-06 17:46:00,50.3,14.0,30.12,SSW,197,7.0,15.0,23,0.00,,,0.00,weatherlink.com 1.10,2013-04-06 21:46:00,
2013-04-06 18:16:00,50.0,15.0,30.11,SSE,160,4.0,11.0,25,0.00,,,0.00,weatherlink.com 1.10,2013-04-06 22:16:00,
2013-04-06 18:46:00,49.8,15.0,30.12,SSE,164,10.0,14.0,25,0.00,,,0.00,weatherlink.com 1.10,2013-04-06 22:46:00,
2013-04-06 19:01:00,49.7,14.0,30.11,South,190,7.0,12.0,24,0.00,,,0.00,weatherlink.com 1.10,2013-04-06 23:01:00,
2013-04-06 19:16:00,49.5,16.0,30.11,South,171,7.0,13.0,26,0.00,,,0.00,weatherlink.com 1.10,2013-04-06 23:16:00,
2013-04-06 19:31:00,49.3,16.0,30.10,SSE,157,10.0,14.0,26,0.00,,,0.00,weatherlink.com 1.10,2013-04-06 23:31:00,
2013-04-06 19:46:00,49.0,16.0,30.09,SSE,161,7.0,14.0,27,0.00,,,0.00,weatherlink.com 1.10,2013-04-06 23:46:00,
2013-04-06 20:01:00,48.8,16.0,30.08,SSE,148,10.0,15.0,27,0.00,,,0.00,weatherlink.com 1.10,2013-04-07 00:01:00,
2013-04-06 20:31:00,48.2,16.0,30.07,SSE,155,10.0,16.0,28,0.00,,,0.00,weatherlink.com 1.10,2013-04-07 00:31:00,
2013-04-06 20:46:00,48.0,16.0,30.07,SSE,158,9.0,13.0,28,0.00,,,0.00,weatherlink.com 1.10,2013-04-07 00:46:00,
2013-04-06 21:16:00,47.4,15.0,30.06,South,170,9.0,13.0,27,0.00,,,0.00,weatherlink.com 1.10,2013-04-07 01:16:00,
2013-04-06 21:31:00,47.5,15.0,30.06,SSE,163,8.0,13.0,27,0.00,,,0.00,weatherlink.com 1.10,2013-04-07 01:31:00,
2013-04-06 21:46:00,47.6,15.0,30.06,SSE,165,9.0,15.0,27,0.00,,,0.00,weatherlink.com 1.10,2013-04-07 01:46:00,
2013-04-06 22:01:00,47.3,15.0,30.05,South,176,11.0,13.0,27,0.00,,,0.00,weatherlink.com 1.10,2013-04-07 02:01:00,
2013-04-06 22:16:00,47.0,15.0,30.04,SSE,156,8.0,15.0,28,0.00,,,0.00,weatherlink.com 1.10,2013-04-07 02:16:00,
2013-04-06 22:31:00,46.6,17.0,30.03,SSE,158,7.0,13.0,30,0.00,,,0.00,weatherlink.com 1.10,2013-04-07 02:31:00,
2013-04-06 22:46:00,46.7,16.0,30.02,SSE,159,7.0,19.0,29,0.00,,,0.00,weatherlink.com 1.10,2013-04-07 02:46:00,
2013-04-06 23:02:00,47.0,15.0,30.02,SE,141,9.0,19.0,28,0.00,,,0.00,weatherlink.com 1.10,2013-04-07 03:02:00,
2013-04-06 23:16:00,47.0,18.0,30.00,SSE,162,10.0,20.0,31,0.00,,,0.00,weatherlink.com 1.10,2013-04-07 03:16:00,
2013-04-06 23:31:00,46.9,17.0,30.00,SE,140,14.0,20.0,30,0.00,,,0.00,weatherlink.com 1.10,2013-04-07 03:31:00,
2013-04-06 23:46:00,47.0,18.0,29.99,SSE,148,12.0,22.0,31,0.00,,,0.00,weatherlink.com 1.10,2013-04-07 03:46:00,